Time;durP1;ratioP1;P1;durP2;ratioP2;P2;SDS_P1;SDS_P2;PMS_P1;PMS_P2;Temp;Humidity;BMP_temperature;BMP_pressure;BME280_temperature;BME280_humidity;BME280_pressure;Samples;Min_cycle;Max_cycle;Signal;HPM_P1;HPM_P2
2021/12/15 00:01:39;;;;;;;29.73;16.25;;;;;;;4.77;81.39;101308.94;4969174;28;105904;-68
2021/12/15 00:04:05;;;;;;;30.60;15.98;;;;;;;4.78;81.35;101304.50;4969437;28;105943;-67
2021/12/15 00:06:32;;;;;;;27.55;15.85;;;;;;;4.79;81.28;101301.75;4970289;28;106014;-68
2021/12/15 00:08:59;;;;;;;32.60;16.50;;;;;;;4.81;81.46;101299.00;4969643;28;106170;-69
2021/12/15 00:11:32;;;;;;;28.40;16.20;;;;;;;4.81;81.26;101296.38;4968994;28;106219;-68
2021/12/15 00:13:59;;;;;;;29.33;16.52;;;;;;;4.83;81.33;101305.03;4967857;28;105865;-69
2021/12/15 00:16:25;;;;;;;30.35;17.63;;;;;;;4.86;81.60;101304.81;4969904;28;105961;-67
2021/12/15 00:18:51;;;;;;;27.60;16.63;;;;;;;4.86;81.32;101297.75;4969456;28;106148;-67
2021/12/15 00:21:19;;;;;;;27.73;14.50;;;;;;;4.88;81.37;101310.81;4968670;28;107822;-67
2021/12/15 00:23:46;;;;;;;26.77;15.27;;;;;;;4.90;81.39;101306.31;4969127;28;105851;-68
2021/12/15 00:26:12;;;;;;;31.42;15.35;;;;;;;4.91;81.64;101289.50;4969643;28;106002;-68
2021/12/15 00:28:38;;;;;;;28.77;15.98;;;;;;;4.93;81.42;101295.53;4969392;28;106416;-68
2021/12/15 00:31:05;;;;;;;30.77;15.60;;;;;;;4.95;81.73;101301.56;4968810;28;106424;-68
2021/12/15 00:33:32;;;;;;;29.05;15.80;;;;;;;4.96;81.21;101283.91;4968647;28;106195;-67
2021/12/15 00:35:57;;;;;;;28.35;16.20;;;;;;;4.97;81.39;101282.97;4979154;28;106832;-65
2021/12/15 00:38:23;;;;;;;26.40;16.42;;;;;;;4.98;81.29;101293.41;4970482;28;106017;-69
2021/12/15 00:40:49;;;;;;;32.33;16.70;;;;;;;4.98;81.36;101282.00;4968582;28;106965;-68
2021/12/15 00:43:14;;;;;;;26.85;14.60;;;;;;;4.97;81.29;101297.00;4968722;28;106043;-68
2021/12/15 00:45:40;;;;;;;30.58;16.85;;;;;;;4.98;81.33;101292.56;4969742;28;105773;-69
2021/12/15 00:48:05;;;;;;;29.10;15.90;;;;;;;5.01;81.41;101305.56;4968966;28;106108;-67
2021/12/15 00:50:34;;;;;;;28.63;14.55;;;;;;;5.00;81.19;101299.44;4968611;28;106985;-68
2021/12/15 00:53:00;;;;;;;29.88;16.52;;;;;;;5.01;81.39;101302.91;4968112;28;106577;-67
2021/12/15 00:55:28;;;;;;;32.50;16.63;;;;;;;5.04;81.14;101300.91;4969315;28;106058;-67
2021/12/15 00:57:54;;;;;;;25.95;14.80;;;;;;;5.05;81.40;101299.94;4968756;28;106244;-69
2021/12/15 01:00:29;;;;;;;29.38;16.52;;;;;;;5.08;81.54;101302.41;4968443;28;105921;-68
2021/12/15 01:02:56;;;;;;;23.23;13.48;;;;;;;5.14;81.46;101300.25;4927955;27;106445;-68
2021/12/15 01:05:27;;;;;;;27.40;15.85;;;;;;;5.15;81.55;101302.78;4948984;28;105923;-69
2021/12/15 01:07:53;;;;;;;26.05;14.93;;;;;;;5.16;81.30;101299.19;4946043;28;106013;-69
2021/12/15 01:10:28;;;;;;;28.90;16.25;;;;;;;5.18;81.37;101307.00;4945990;28;106101;-69
2021/12/15 01:21:07;;;;;;;28.00;14.75;;;;;;;5.29;81.48;101309.75;4948944;28;106023;-69
2021/12/15 01:23:34;;;;;;;24.70;14.27;;;;;;;5.30;81.27;101314.06;4948841;28;105981;-72
2021/12/15 01:26:06;;;;;;;23.75;13.38;;;;;;;5.32;81.35;101316.63;4949451;28;106045;-70
2021/12/15 01:28:32;;;;;;;25.50;14.57;;;;;;;5.31;81.29;101318.41;4948874;28;106320;-69
2021/12/15 01:30:59;;;;;;;28.33;15.35;;;;;;;5.33;81.45;101313.88;4979228;28;106044;-69
2021/12/15 01:33:26;;;;;;;26.90;16.02;;;;;;;5.36;81.30;101316.28;4948125;28;106257;-68
2021/12/15 01:35:54;;;;;;;26.02;14.73;;;;;;;5.37;81.19;101306.56;4948960;28;106092;-67
2021/12/15 01:38:22;;;;;;;27.17;15.23;;;;;;;5.41;81.43;101313.31;4948950;28;106152;-68
2021/12/15 01:40:48;;;;;;;26.35;14.82;;;;;;;5.42;81.21;101310.56;4948155;28;106180;-66
2021/12/15 01:43:22;;;;;;;23.17;14.63;;;;;;;5.43;81.25;101316.72;4948521;28;105943;-67
2021/12/15 01:48:40;;;;;;;31.08;15.13;;;;;;;5.44;81.37;101323.69;4948756;28;106030;-68
2021/12/15 01:51:09;;;;;;;25.05;14.23;;;;;;;5.44;81.13;101323.69;4948290;28;105819;-67
2021/12/15 01:53:34;;;;;;;26.73;14.02;;;;;;;5.42;80.73;101325.59;4946902;28;108183;-67
2021/12/15 01:56:01;;;;;;;25.88;14.80;;;;;;;5.41;80.94;101321.25;4949205;28;105903;-68
2021/12/15 01:58:26;;;;;;;29.55;14.77;;;;;;;5.43;81.31;101322.81;4948152;28;106243;-68
2021/12/15 02:00:56;;;;;;;26.80;14.48;;;;;;;5.43;80.98;101322.00;4948283;28;106619;-68
2021/12/15 02:03:22;;;;;;;27.25;16.13;;;;;;;5.42;81.11;101331.69;4948022;28;106427;-67
2021/12/15 02:05:48;;;;;;;27.70;15.25;;;;;;;5.38;80.96;101332.88;4949096;28;105945;-68
2021/12/15 02:08:14;;;;;;;26.40;15.15;;;;;;;5.34;80.68;101338.50;4948328;28;106204;-67
2021/12/15 02:10:42;;;;;;;29.98;15.82;;;;;;;5.31;81.09;101336.91;4947962;28;106088;-68
2021/12/15 02:13:12;;;;;;;30.83;15.45;;;;;;;5.31;81.36;101328.97;4948045;28;105939;-67
2021/12/15 02:15:42;;;;;;;;;;;;;;;5.32;81.16;101338.59;4949147;28;106133;-69
2021/12/15 02:18:12;;;;;;;29.73;15.48;;;;;;;5.31;81.39;101331.63;4948391;28;106127;-67
2021/12/15 02:20:51;;;;;;;27.60;15.30;;;;;;;5.31;81.14;101339.53;4951113;28;105926;-68
2021/12/15 02:23:20;;;;;;;33.88;15.57;;;;;;;5.29;80.99;101340.59;4951680;28;106348;-68
2021/12/15 02:25:47;;;;;;;32.47;16.95;;;;;;;5.28;81.41;101331.84;4953198;28;106045;-76
2021/12/15 02:28:13;;;;;;;26.67;14.65;;;;;;;5.28;81.33;101333.66;4953491;28;105986;-80
2021/12/15 02:31:05;;;;;;;30.15;16.25;;;;;;;5.27;81.38;101338.06;4951993;28;106450;-73
2021/12/15 02:38:46;;;;;;;30.73;16.17;;;;;;;5.22;81.39;101343.69;4952035;28;106280;-75
2021/12/15 02:41:20;;;;;;;31.00;16.02;;;;;;;5.22;81.43;101340.19;4951626;28;106348;-74
2021/12/15 02:43:52;;;;;;;32.00;16.13;;;;;;;5.20;81.41;101342.94;4950468;28;106773;-75
2021/12/15 02:46:18;;;;;;;31.25;16.67;;;;;;;5.16;81.14;101348.56;4951963;28;106123;-72
2021/12/15 02:48:44;;;;;;;32.17;16.40;;;;;;;5.14;81.48;101347.81;4951477;28;106146;-73
2021/12/15 02:51:10;;;;;;;32.72;16.63;;;;;;;5.12;81.52;101350.56;4950926;28;106096;-75
2021/12/15 02:53:35;;;;;;;35.10;16.65;;;;;;;5.11;81.68;101345.38;4951094;28;105716;-72
2021/12/15 02:56:01;;;;;;;31.02;15.75;;;;;;;5.06;81.49;101346.53;4951663;28;105875;-71
2021/12/15 02:58:32;;;;;;;35.08;16.77;;;;;;;5.06;81.58;101349.19;4951411;28;105870;-72
2021/12/15 03:01:07;;;;;;;37.95;17.23;;;;;;;5.08;81.89;101355.22;4951280;28;105944;-79
2021/12/15 03:06:48;;;;;;;34.85;16.42;;;;;;;5.16;81.93;101361.75;4948781;28;106199;-75
2021/12/15 03:17:26;;;;;;;34.75;15.52;;;;;;;5.12;81.78;101357.66;4948673;28;105986;-72
2021/12/15 03:19:52;;;;;;;37.33;16.80;;;;;;;5.09;81.96;101353.41;4951324;28;106017;-73
2021/12/15 03:22:18;;;;;;;31.77;15.38;;;;;;;5.09;82.07;101364.81;4950645;28;105937;-73
2021/12/15 03:24:43;;;;;;;36.45;14.80;;;;;;;5.08;82.29;101365.78;4950565;28;105990;-71
2021/12/15 03:27:15;;;;;;;33.50;15.18;;;;;;;5.08;82.19;101359.63;4951379;28;105998;-70
2021/12/15 03:37:45;;;;;;;38.38;15.07;;;;;;;5.12;82.33;101368.22;4950658;28;105863;-70
2021/12/15 03:40:17;;;;;;;34.70;14.95;;;;;;;5.14;82.60;101368.94;4950322;28;106470;-70
2021/12/15 03:42:55;;;;;;;35.50;15.77;;;;;;;5.15;82.42;101376.75;4950034;28;105800;-71
2021/12/15 03:45:30;;;;;;;36.63;16.15;;;;;;;5.15;82.35;101375.91;4949824;28;106132;-70
2021/12/15 03:47:58;;;;;;;37.67;15.38;;;;;;;5.15;82.38;101375.91;4951008;28;106367;-70
2021/12/15 03:50:27;;;;;;;43.15;15.75;;;;;;;5.16;82.54;101372.34;4950011;28;105976;-70
2021/12/15 03:52:53;;;;;;;37.80;15.15;;;;;;;5.17;82.63;101379.31;4950043;28;105795;-69
2021/12/15 03:55:22;;;;;;;43.97;17.58;;;;;;;5.17;82.28;101377.50;4950052;28;105814;-74
2021/12/15 03:57:48;;;;;;;47.13;15.75;;;;;;;5.19;82.65;101377.41;4949279;28;106011;-73
2021/12/15 04:00:16;;;;;;;34.20;15.32;;;;;;;5.22;82.42;101374.53;4950821;28;106262;-74
2021/12/15 04:02:41;;;;;;;41.55;16.40;;;;;;;5.22;82.83;101377.19;4949875;28;107297;-72
2021/12/15 04:05:10;;;;;;;40.53;16.27;;;;;;;5.22;82.74;101383.31;4949716;28;106288;-72
2021/12/15 04:07:37;;;;;;;41.83;15.88;;;;;;;5.21;82.37;101389.56;4950282;28;106238;-70
2021/12/15 04:10:06;;;;;;;33.00;13.20;;;;;;;5.21;82.61;101386.91;4949657;28;106278;-68
2021/12/15 04:12:31;;;;;;;42.10;14.95;;;;;;;5.22;82.97;101387.75;4949009;28;108562;-70
2021/12/15 04:15:18;;;;;;;40.30;15.60;;;;;;;5.26;82.96;101383.94;4949382;28;105779;-72
2021/12/15 04:17:42;;;;;;;35.35;14.57;;;;;;;5.30;82.83;101390.69;4950069;28;105933;-71
2021/12/15 04:20:12;;;;;;;37.83;14.55;;;;;;;5.30;82.89;101389.88;4949810;28;106151;-69
2021/12/15 04:22:38;;;;;;;39.40;16.23;;;;;;;5.30;82.77;101390.69;4949165;28;105995;-70
2021/12/15 04:25:14;;;;;;;42.47;15.07;;;;;;;5.31;83.01;101389.75;4949552;28;106364;-69
2021/12/15 04:27:49;;;;;;;42.55;14.98;;;;;;;5.35;82.98;101403.59;4949843;28;106053;-72
2021/12/15 04:30:16;;;;;;;39.95;15.82;;;;;;;5.35;82.99;101403.59;4949731;28;106304;-69
2021/12/15 04:32:46;;;;;;;37.80;16.35;;;;;;;5.35;83.17;101399.16;4948605;28;105918;-69
2021/12/15 04:35:12;;;;;;;37.25;15.05;;;;;;;5.37;82.93;101402.56;4949120;28;106435;-70
2021/12/15 04:37:38;;;;;;;41.05;15.93;;;;;;;5.39;82.73;101405.09;4949823;28;106228;-71
2021/12/15 04:40:07;;;;;;;40.20;15.00;;;;;;;5.39;82.63;101402.44;4949217;28;106195;-68
2021/12/15 04:42:33;;;;;;;41.50;16.02;;;;;;;5.37;82.70;101407.84;4948079;28;106030;-67
2021/12/15 04:45:00;;;;;;;39.75;14.88;;;;;;;5.40;83.03;101406.78;4948835;28;106421;-68
2021/12/15 04:47:26;;;;;;;36.75;14.25;;;;;;;5.39;82.79;101411.19;4949678;28;105854;-69
2021/12/15 04:49:54;;;;;;;44.75;16.80;;;;;;;5.40;83.09;101412.06;4949210;28;106197;-67
2021/12/15 04:52:24;;;;;;;41.75;16.63;;;;;;;5.38;82.82;101409.50;4949062;28;106573;-75
2021/12/15 04:54:50;;;;;;;43.95;16.15;;;;;;;5.40;82.75;101414.72;4948474;28;106675;-69
2021/12/15 04:57:19;;;;;;;46.75;15.57;;;;;;;5.41;83.26;101413.72;4949439;28;105921;-70
2021/12/15 04:59:45;;;;;;;40.97;15.35;;;;;;;5.43;83.12;101411.84;4980448;28;106044;-68
2021/12/15 05:02:13;;;;;;;43.10;13.70;;;;;;;5.45;83.21;101414.38;4948306;28;106262;-69
2021/12/15 05:04:39;;;;;;;43.72;15.73;;;;;;;5.46;83.11;101416.06;4948493;28;105991;-68
2021/12/15 05:07:04;;;;;;;39.45;14.73;;;;;;;5.46;82.99;101416.91;4949310;28;106041;-68
2021/12/15 05:09:30;;;;;;;44.83;16.05;;;;;;;5.48;83.36;101424.72;4948738;28;106160;-68
2021/12/15 05:11:56;;;;;;;40.63;15.60;;;;;;;5.51;83.08;101429.78;4948372;28;106022;-71
2021/12/15 05:14:23;;;;;;;39.70;14.73;;;;;;;5.52;83.30;101431.50;4948438;28;106005;-68
2021/12/15 05:16:51;;;;;;;41.88;15.20;;;;;;;5.55;83.55;101423.34;4948932;28;106317;-72
2021/12/15 05:19:16;;;;;;;48.83;16.48;;;;;;;5.56;83.21;101427.69;4948609;28;106222;-68
2021/12/15 05:21:42;;;;;;;40.60;15.50;;;;;;;5.58;83.43;101433.72;4948541;28;105933;-68
2021/12/15 05:24:14;;;;;;;46.97;16.05;;;;;;;5.59;82.85;101428.31;4948415;28;105887;-73
2021/12/15 05:26:40;;;;;;;49.30;17.42;;;;;;;5.60;83.00;101429.16;4948772;28;106031;-69
2021/12/15 05:29:06;;;;;;;47.75;15.68;;;;;;;5.62;83.14;101435.19;4948225;28;106307;-70
2021/12/15 05:31:31;;;;;;;40.80;15.27;;;;;;;5.62;83.18;101440.50;4948281;28;106208;-71
2021/12/15 05:33:57;;;;;;;45.75;14.98;;;;;;;5.63;83.17;101439.53;4948233;28;106832;-69
2021/12/15 13:01:11;;;;;;;16.17;9.10;;;;;;;7.22;83.10;101465.06;4982687;28;106575;-67
2021/12/15 13:03:44;;;;;;;17.63;9.00;;;;;;;7.26;83.21;101471.00;4992688;28;106051;-67
2021/12/15 13:06:20;;;;;;;13.90;8.45;;;;;;;7.32;82.82;101469.66;4994108;28;106180;-67
2021/12/15 13:08:54;;;;;;;13.63;7.45;;;;;;;7.37;83.13;101465.69;5003528;28;105941;-68
2021/12/15 13:11:20;;;;;;;16.08;8.30;;;;;;;7.41;82.88;101461.84;4983743;28;106695;-68
2021/12/15 13:14:12;;;;;;;13.38;7.82;;;;;;;7.47;83.57;101465.84;4983438;28;106114;-70
2021/12/15 13:16:39;;;;;;;14.82;8.02;;;;;;;7.52;83.64;101457.50;4998953;28;106102;-72
2021/12/15 13:19:17;;;;;;;15.00;8.52;;;;;;;7.56;83.39;101458.97;5003751;28;106091;-66
2021/12/15 13:21:47;;;;;;;11.65;7.90;;;;;;;7.60;83.38;101460.44;5002229;28;106761;-65
2021/12/15 13:30:23;;;;;;;16.67;8.75;;;;;;;7.70;82.64;101463.22;4999855;28;106039;-68
2021/12/15 13:32:49;;;;;;;16.30;8.80;;;;;;;7.69;82.36;101470.31;5002579;28;105995;-69
2021/12/15 13:35:34;;;;;;;11.45;7.80;;;;;;;7.68;82.66;101458.03;5002634;28;106081;-67
2021/12/15 13:38:02;;;;;;;16.35;9.13;;;;;;;7.69;82.53;101465.00;5003802;28;105996;-69
2021/12/15 13:40:54;;;;;;;19.67;9.55;;;;;;;7.69;82.93;101465.00;5002720;28;106377;-70
2021/12/15 13:43:40;;;;;;;16.85;9.40;;;;;;;7.70;82.91;101466.69;5004619;28;106269;-68
2021/12/15 13:46:21;;;;;;;17.08;9.63;;;;;;;7.72;82.20;101467.44;5009469;28;106518;-69
2021/12/15 13:48:53;;;;;;;;;;;;;;;7.71;82.79;101463.09;5013886;28;106632;-70
2021/12/15 13:51:53;;;;;;;15.48;9.18;;;;;;;7.72;82.70;101467.44;5002660;28;106197;-69
2021/12/15 13:54:43;;;;;;;13.25;7.07;;;;;;;7.69;82.34;101458.88;5002396;28;106435;-68
2021/12/15 13:57:11;;;;;;;14.55;8.25;;;;;;;7.65;82.62;101463.56;5002240;28;106225;-67
2021/12/15 13:59:53;;;;;;;14.05;9.20;;;;;;;7.64;82.78;101467.19;5002439;28;106144;-67
2021/12/15 14:02:36;;;;;;;14.27;8.65;;;;;;;7.63;82.74;101466.31;4999793;28;106216;-70
2021/12/15 14:05:07;;;;;;;17.10;9.45;;;;;;;7.63;82.29;101473.44;4988556;28;106146;-67
2021/12/15 14:07:35;;;;;;;19.65;10.52;;;;;;;7.61;81.96;101478.00;4989319;28;106296;-68
2021/12/15 14:10:21;;;;;;;16.88;9.82;;;;;;;7.60;82.09;101471.88;4988931;28;106056;-69
2021/12/15 14:12:46;;;;;;;20.63;10.95;;;;;;;7.60;81.92;101477.19;4988494;28;106165;-70
2021/12/15 14:15:30;;;;;;;16.85;9.15;;;;;;;7.60;82.50;101486.97;4988044;28;106035;-69
2021/12/15 14:17:59;;;;;;;15.40;9.23;;;;;;;7.63;82.21;101492.03;4988648;28;105940;-69
2021/12/15 14:20:26;;;;;;;17.73;9.98;;;;;;;7.64;81.93;101483.09;4989327;28;106008;-68
2021/12/15 14:22:57;;;;;;;14.52;8.88;;;;;;;7.63;82.17;101492.03;4988383;28;106230;-70
2021/12/15 14:25:22;;;;;;;;;;;;;;;7.61;81.97;101493.94;4989000;28;106885;-71
2021/12/15 14:27:48;;;;;;;14.07;8.65;;;;;;;7.62;81.80;101500.94;4973768;28;106078;-68
2021/12/15 14:57:22;;;;;;;18.65;10.82;;;;;;;6.67;82.21;101503.63;5006800;28;106578;-70
2021/12/15 15:00:01;;;;;;;16.30;10.30;;;;;;;6.65;82.55;101506.41;4987223;28;106055;-75
2021/12/15 15:02:34;;;;;;;22.70;12.15;;;;;;;6.66;82.08;101508.09;4983144;28;106710;-69
2021/12/15 15:05:06;;;;;;;19.65;11.00;;;;;;;6.69;82.21;101507.84;4982893;28;106167;-66
2021/12/15 15:07:35;;;;;;;17.80;11.32;;;;;;;6.72;82.24;101502.31;4982922;28;106129;-67
2021/12/15 15:10:06;;;;;;;22.88;12.57;;;;;;;6.77;82.79;101508.13;4982962;28;106026;-67
2021/12/15 15:12:34;;;;;;;;;;;;;;;6.83;82.79;101516.59;4983012;28;106263;-68
2021/12/15 15:15:10;;;;;;;19.85;10.93;;;;;;;6.86;82.91;101522.53;4983173;28;106126;-66
2021/12/15 15:17:50;;;;;;;18.55;10.93;;;;;;;6.90;82.29;101518.69;4982572;28;106579;-67
2021/12/15 15:20:15;;;;;;;20.67;11.40;;;;;;;6.93;82.71;101522.91;4983458;28;106573;-68
2021/12/15 15:22:44;;;;;;;18.20;11.52;;;;;;;6.99;82.89;101524.28;4982560;28;106412;-68
2021/12/15 15:25:11;;;;;;;19.15;12.98;;;;;;;7.02;82.34;101521.38;4982605;28;106135;-67
2021/12/15 15:27:39;;;;;;;18.58;13.40;;;;;;;7.04;82.56;101516.78;4981856;28;106498;-67
2021/12/15 15:30:08;;;;;;;20.15;12.32;;;;;;;7.06;82.40;101520.19;4983025;28;106073;-67
2021/12/15 15:32:36;;;;;;;18.30;12.43;;;;;;;7.07;82.20;101528.03;4982392;28;106181;-68
2021/12/15 15:35:14;;;;;;;20.80;11.80;;;;;;;7.11;82.45;101518.06;4982070;28;106229;-67
2021/12/15 15:37:41;;;;;;;16.58;11.88;;;;;;;7.14;82.91;101522.28;4990803;28;106427;-67
2021/12/15 15:40:18;;;;;;;18.42;12.45;;;;;;;7.15;82.07;101513.34;4983007;28;106121;-65
2021/12/15 15:42:46;;;;;;;20.90;12.20;;;;;;;7.15;82.34;101513.34;4992837;28;106171;-66
2021/12/15 15:45:28;;;;;;;18.27;11.32;;;;;;;7.13;82.42;101507.34;4999642;28;106054;-68
2021/12/15 15:47:54;;;;;;;18.17;10.23;;;;;;;7.08;81.92;101505.88;5001880;28;106352;-66
2021/12/15 15:50:21;;;;;;;21.73;11.38;;;;;;;7.03;81.66;101505.38;5002797;28;106104;-65
2021/12/15 15:52:51;;;;;;;20.83;12.27;;;;;;;6.98;81.62;101504.03;5002163;28;105971;-66
2021/12/15 15:55:18;;;;;;;15.50;9.90;;;;;;;6.94;82.33;101501.59;5001054;28;107282;-66
2021/12/15 15:57:51;;;;;;;20.77;11.32;;;;;;;6.92;82.53;101514.09;5002367;28;106438;-66
2021/12/15 16:00:18;;;;;;;16.83;10.55;;;;;;;6.88;82.41;101509.16;5003158;28;106057;-66
2021/12/15 16:02:44;;;;;;;18.58;11.63;;;;;;;6.87;82.44;101504.81;5002584;27;106003;-66
2021/12/15 16:05:12;;;;;;;21.80;11.25;;;;;;;6.86;82.28;101519.88;4997604;28;106166;-66
2021/12/15 16:07:38;;;;;;;17.00;10.50;;;;;;;6.80;81.76;101514.19;4974216;28;106063;-66
2021/12/15 16:10:04;;;;;;;17.00;11.02;;;;;;;6.69;81.75;101514.97;4968988;28;106485;-67
2021/12/15 16:12:34;;;;;;;18.40;10.00;;;;;;;6.59;81.85;101512.16;4969024;28;106095;-67
2021/12/15 16:15:00;;;;;;;19.05;11.40;;;;;;;6.51;81.84;101514.50;4975874;28;106786;-67
2021/12/15 16:17:31;;;;;;;15.57;10.82;;;;;;;6.47;81.81;101518.34;4988189;28;106008;-66
2021/12/15 16:20:14;;;;;;;21.55;11.93;;;;;;;6.49;82.85;101524.34;4988711;28;106107;-66
2021/12/15 16:22:54;;;;;;;22.52;12.10;;;;;;;6.52;82.72;101519.69;4983080;28;106181;-65
2021/12/15 16:25:27;;;;;;;17.42;10.75;;;;;;;6.54;82.15;101519.56;4975581;28;106109;-67
2021/12/15 16:27:55;;;;;;;21.25;12.50;;;;;;;6.53;82.42;101526.66;4987963;28;106166;-67
2021/12/15 16:30:35;;;;;;;18.73;11.65;;;;;;;6.56;82.90;101523.81;4988900;28;105983;-67
2021/12/15 16:33:04;;;;;;;17.15;11.43;;;;;;;6.63;82.66;101529.50;4988045;28;106455;-67
2021/12/15 16:35:36;;;;;;;17.27;9.90;;;;;;;6.69;82.76;101517.63;4988069;28;106100;-67
2021/12/15 16:38:18;;;;;;;16.02;9.73;;;;;;;6.72;82.64;101520.88;4988889;28;105963;-68
2021/12/15 16:41:07;;;;;;;18.95;11.18;;;;;;;6.75;82.62;101523.31;4988978;28;106079;-67
2021/12/15 16:43:50;;;;;;;21.05;11.70;;;;;;;6.76;82.26;101524.97;4988807;28;106186;-66
2021/12/15 16:46:25;;;;;;;20.08;12.35;;;;;;;6.81;82.57;101529.09;4987337;28;106830;-70
2021/12/15 16:48:54;;;;;;;17.75;10.07;;;;;;;6.85;82.27;101525.25;4988227;28;106257;-68
2021/12/15 16:51:20;;;;;;;18.40;10.95;;;;;;;6.87;82.45;101510.94;4988734;28;106053;-66
2021/12/15 16:53:52;;;;;;;14.70;9.50;;;;;;;6.90;82.62;101525.78;4988071;28;106151;-65
2021/12/15 16:56:42;;;;;;;17.60;9.48;;;;;;;6.91;82.46;101519.53;4988045;28;106662;-66
2021/12/15 16:59:23;;;;;;;18.02;9.93;;;;;;;6.91;82.71;101524.81;4988910;28;106071;-68
2021/12/15 17:02:02;;;;;;;20.25;9.82;;;;;;;6.92;82.31;101527.34;4988852;28;106539;-66
2021/12/15 17:04:31;;;;;;;17.25;10.00;;;;;;;6.91;82.27;101530.13;4988930;28;105996;-68
2021/12/15 17:07:03;;;;;;;20.90;9.93;;;;;;;6.92;81.91;101523.88;4987434;28;106617;-68
2021/12/15 17:09:33;;;;;;;17.10;9.88;;;;;;;6.91;81.89;101527.47;4987258;28;106071;-67
2021/12/15 17:12:30;;;;;;;20.63;11.85;;;;;;;6.90;82.20;101528.44;4988403;28;106667;-67
2021/12/15 17:15:00;;;;;;;22.95;12.23;;;;;;;6.95;82.48;101526.28;4987584;28;106526;-68
2021/12/15 17:17:53;;;;;;;16.33;9.77;;;;;;;6.96;82.66;101514.75;4986626;28;106659;-67
2021/12/15 17:20:33;;;;;;;16.88;10.57;;;;;;;6.97;81.92;101537.63;4986063;28;106908;-68
2021/12/15 17:23:18;;;;;;;20.15;12.48;;;;;;;6.95;81.73;101531.59;4987989;28;106072;-68
2021/12/15 17:25:51;;;;;;;21.42;11.98;;;;;;;6.98;82.39;101522.56;4987729;28;106034;-68
2021/12/15 17:28:34;;;;;;;17.98;10.35;;;;;;;6.94;82.25;101521.94;4987468;28;106590;-68
2021/12/15 17:31:12;;;;;;;25.27;14.50;;;;;;;6.91;82.37;101516.88;4987402;28;106000;-68
2021/12/15 17:33:52;;;;;;;20.33;10.75;;;;;;;6.91;82.30;101516.88;4987691;28;105959;-68
2021/12/15 17:36:39;;;;;;;19.90;11.23;;;;;;;6.87;81.78;101515.41;4987463;28;106432;-67
2021/12/15 17:39:19;;;;;;;19.88;10.80;;;;;;;6.87;81.72;101520.72;4987604;28;105998;-69
2021/12/15 17:41:49;;;;;;;20.47;12.47;;;;;;;6.85;82.09;101514.66;4985565;28;107023;-69
2021/12/15 17:44:26;;;;;;;20.40;12.88;;;;;;;6.86;82.31;101521.66;4987200;28;106129;-70
2021/12/15 17:47:00;;;;;;;19.92;13.25;;;;;;;6.86;82.38;101519.88;4987029;28;106050;-69
2021/12/15 17:49:42;;;;;;;20.33;11.65;;;;;;;6.85;82.31;101514.66;4987282;28;106080;-72
2021/12/15 17:52:19;;;;;;;23.02;12.77;;;;;;;6.85;81.82;101515.53;4987123;28;106032;-70
2021/12/15 17:54:55;;;;;;;17.67;10.18;;;;;;;6.82;82.17;101526.38;4988061;28;106173;-72
2021/12/15 17:57:23;;;;;;;16.17;10.65;;;;;;;6.82;82.42;101517.56;4987181;28;106288;-70
2021/12/15 17:59:51;;;;;;;19.23;11.93;;;;;;;6.82;82.43;101512.25;4986955;28;106020;-67
2021/12/15 18:02:18;;;;;;;17.40;11.18;;;;;;;6.84;82.00;101516.47;4986144;28;105987;-68
2021/12/15 18:04:44;;;;;;;22.23;12.38;;;;;;;6.87;81.92;101526.00;4985909;28;105941;-67
2021/12/15 18:07:10;;;;;;;22.83;11.98;;;;;;;6.84;82.33;101527.06;4985137;28;106326;-68
2021/12/15 18:09:38;;;;;;;21.20;12.57;;;;;;;6.85;81.96;101534.06;4985789;28;106144;-68
2021/12/15 18:12:08;;;;;;;22.02;13.63;;;;;;;6.87;82.45;101536.59;4986201;28;106272;-68
2021/12/15 18:14:34;;;;;;;20.52;13.40;;;;;;;6.89;82.43;101530.25;4987584;28;105849;-69
2021/12/15 18:17:00;;;;;;;21.50;12.60;;;;;;;6.88;81.87;101535.66;4985509;28;106041;-69
2021/12/15 18:19:25;;;;;;;21.45;12.80;;;;;;;6.91;81.94;101540.72;4986494;28;105923;-68
2021/12/15 18:21:53;;;;;;;19.73;11.00;;;;;;;6.94;82.60;101544.00;4985603;28;107127;-73
2021/12/15 18:24:20;;;;;;;22.15;12.20;;;;;;;6.94;82.28;101549.31;4987089;28;106053;-68
2021/12/15 18:26:49;;;;;;;18.42;10.77;;;;;;;6.94;82.34;101544.00;4986178;28;108239;-69
2021/12/15 18:29:16;;;;;;;18.48;11.23;;;;;;;6.95;82.29;101544.84;4985882;28;106741;-68
2021/12/15 18:31:44;;;;;;;19.35;12.07;;;;;;;6.98;82.45;101539.28;4986076;28;106187;-68
2021/12/15 18:34:11;;;;;;;16.88;10.70;;;;;;;6.97;82.05;101532.34;4986450;28;106829;-69
2021/12/15 18:36:38;;;;;;;20.10;12.07;;;;;;;6.99;82.26;101535.69;4984457;28;106199;-69
2021/12/15 18:39:08;;;;;;;18.67;11.30;;;;;;;6.99;81.90;101532.22;4984578;28;106972;-68
2021/12/15 18:41:34;;;;;;;19.20;11.73;;;;;;;6.96;81.69;101525.34;4986410;28;106896;-67
2021/12/15 18:44:04;;;;;;;18.92;10.93;;;;;;;6.98;81.82;101531.34;4986980;28;106770;-67
2021/12/15 18:46:31;;;;;;;16.88;11.27;;;;;;;6.95;82.17;101537.72;4985989;28;105997;-68
2021/12/15 18:48:58;;;;;;;17.92;11.68;;;;;;;7.00;82.04;101539.19;4985570;28;108837;-69
2021/12/15 18:51:26;;;;;;;20.02;12.00;;;;;;;7.00;81.69;101540.03;4985885;28;106050;-67
2021/12/15 18:53:51;;;;;;;28.75;12.10;;;;;;;7.03;82.46;101526.56;4986491;28;106148;-68
2021/12/15 18:56:19;;;;;;;19.05;10.95;;;;;;;7.05;82.39;101535.25;4985698;28;106025;-68
2021/12/15 18:58:46;;;;;;;16.10;9.45;;;;;;;7.05;81.50;101540.56;4985493;28;105899;-68
2021/12/15 19:01:16;;;;;;;20.10;11.32;;;;;;;7.02;81.98;101532.81;4986276;28;106197;-68
2021/12/15 19:03:42;;;;;;;17.92;11.90;;;;;;;7.03;81.97;101539.81;4986936;28;106119;-68
2021/12/15 19:06:08;;;;;;;19.42;11.80;;;;;;;7.03;81.57;101539.81;4986190;28;106111;-68
2021/12/15 19:08:35;;;;;;;22.38;13.02;;;;;;;6.99;81.59;101535.69;4981360;28;105987;-68
2021/12/15 19:11:02;;;;;;;21.55;14.20;;;;;;;6.95;82.05;101537.72;4968524;28;106131;-70
2021/12/15 19:13:27;;;;;;;21.20;12.77;;;;;;;6.94;81.82;101544.00;4977748;28;106061;-70
2021/12/15 19:15:52;;;;;;;17.83;12.32;;;;;;;6.93;82.00;101530.88;4987217;28;106410;-70
2021/12/15 19:18:18;;;;;;;19.25;11.77;;;;;;;6.93;82.12;101528.22;4987072;28;106071;-68
2021/12/15 19:20:47;;;;;;;17.77;11.10;;;;;;;6.89;81.79;101524.94;4987221;28;105916;-68
2021/12/15 19:23:15;;;;;;;21.30;11.85;;;;;;;6.86;82.13;101524.31;4987745;28;105909;-68
2021/12/15 19:25:41;;;;;;;21.00;12.63;;;;;;;6.87;82.34;101531.31;4987179;28;105885;-68
2021/12/15 19:28:09;;;;;;;22.35;12.68;;;;;;;6.86;82.44;101541.06;4986984;28;106851;-68
2021/12/15 19:30:38;;;;;;;23.00;13.43;;;;;;;6.87;82.42;101526.00;4987265;28;106546;-68
2021/12/15 19:33:07;;;;;;;20.55;12.75;;;;;;;6.88;81.96;101533.00;4986517;28;105955;-68
2021/12/15 19:35:39;;;;;;;19.58;12.50;;;;;;;6.86;82.24;101527.81;4987558;28;106202;-67
2021/12/15 19:38:05;;;;;;;22.83;11.88;;;;;;;6.87;82.26;101531.31;4987411;28;106226;-67
2021/12/15 19:40:32;;;;;;;22.45;13.40;;;;;;;6.85;82.16;101533.22;4987226;28;106071;-67
2021/12/15 19:42:58;;;;;;;20.85;12.30;;;;;;;6.83;82.13;101540.44;4989564;28;106028;-67
2021/12/15 19:45:27;;;;;;;22.67;13.82;;;;;;;6.78;81.59;101546.91;4990736;28;106224;-67
2021/12/15 19:47:53;;;;;;;22.58;13.07;;;;;;;6.75;82.07;101554.22;4990217;28;106581;-68
2021/12/15 19:50:20;;;;;;;18.83;11.98;;;;;;;6.73;82.28;101549.06;4990460;28;106007;-68
2021/12/15 19:52:46;;;;;;;18.75;11.90;;;;;;;6.75;82.20;101557.75;4991067;28;105933;-68
2021/12/15 19:55:16;;;;;;;16.13;10.93;;;;;;;6.77;81.80;101545.22;4989988;28;106150;-68
2021/12/15 19:57:43;;;;;;;16.52;11.18;;;;;;;6.80;82.05;101552.09;4990122;28;105774;-69
2021/12/15 20:00:13;;;;;;;19.88;11.82;;;;;;;6.84;82.32;101552.72;4990088;28;106019;-67